Time;durP1;ratioP1;P1;durP2;ratioP2;P2;SDS_P1;SDS_P2;PMS_P1;PMS_P2;Temp;Humidity;BMP_temperature;BMP_pressure;BME280_temperature;BME280_humidity;BME280_pressure;Samples;Min_cycle;Max_cycle;Signal;HPM_P1;HPM_P2
2023/10/31 00:00:50;;;;;;;40.03;2.03;;;;;;;24.07;48.16;97383.13;7310509;19;129243;-35
2023/10/31 00:03:15;;;;;;;83.07;4.30;;;;;;;24.10;47.52;97387.16;7309687;19;130282;-33
2023/10/31 00:05:41;;;;;;;30.35;1.90;;;;;;;24.09;47.41;97389.00;7310104;19;129149;-37
2023/10/31 00:08:06;;;;;;;37.40;2.17;;;;;;;24.09;47.93;97378.50;7311917;19;129562;-33
2023/10/31 00:10:32;;;;;;;54.80;3.60;;;;;;;24.08;47.90;97357.69;7311743;19;128834;-35
2023/10/31 00:12:57;;;;;;;72.03;3.83;;;;;;;23.98;47.83;97324.00;7309614;19;129186;-40
2023/10/31 00:15:24;;;;;;;28.07;1.53;;;;;;;24.07;47.54;97345.56;7312287;19;129797;-33
2023/10/31 00:17:50;;;;;;;52.97;3.03;;;;;;;24.05;47.95;97358.09;7309427;19;129226;-30
2023/10/31 00:20:15;;;;;;;28.23;1.73;;;;;;;24.06;48.12;97389.41;7311330;19;129164;-39
2023/10/31 00:22:40;;;;;;;73.43;3.80;;;;;;;24.07;47.71;97409.38;7310041;19;129360;-35
2023/10/31 00:25:06;;;;;;;71.07;4.33;;;;;;;24.06;47.61;97397.28;7310967;19;129184;-31
2023/10/31 00:27:31;;;;;;;27.33;1.47;;;;;;;24.06;48.08;97392.03;7311419;19;128879;-34
2023/10/31 00:29:56;;;;;;;41.30;2.10;;;;;;;23.92;47.53;97368.63;7311132;19;128937;-30
2023/10/31 00:32:22;;;;;;;63.70;3.43;;;;;;;24.06;47.76;97399.91;7310398;19;129838;-41
2023/10/31 00:34:47;;;;;;;50.00;2.77;;;;;;;24.05;47.53;97421.91;7310990;19;128955;-40
2023/10/31 00:37:12;;;;;;;9.07;0.77;;;;;;;24.05;47.37;97419.28;7309122;19;129049;-30
2023/10/31 00:39:38;;;;;;;71.07;3.77;;;;;;;23.98;47.88;97415.88;7310254;19;129205;-32
2023/10/31 00:42:03;;;;;;;39.13;2.10;;;;;;;24.03;47.77;97423.16;7312097;19;129082;-35
2023/10/31 00:44:28;;;;;;;22.43;1.33;;;;;;;24.03;47.93;97423.94;7308763;19;129618;-33
2023/10/31 00:46:54;;;;;;;54.27;3.03;;;;;;;24.04;48.17;97422.94;7308830;19;128992;-34
2023/10/31 00:49:19;;;;;;;70.93;3.73;;;;;;;24.05;47.59;97416.66;7310334;19;128867;-32
2023/10/31 00:51:45;;;;;;;47.87;2.63;;;;;;;24.04;47.76;97407.19;7311092;19;130061;-33
2023/10/31 00:54:10;;;;;;;26.93;1.57;;;;;;;24.04;47.96;97401.94;7309489;19;130146;-32
2023/10/31 00:56:35;;;;;;;25.77;1.50;;;;;;;24.03;47.88;97392.44;7310192;19;128836;-44
2023/10/31 00:59:01;;;;;;;56.00;2.83;;;;;;;24.05;47.28;97386.97;7306568;19;129294;-39
2023/10/31 01:01:26;;;;;;;28.88;1.83;;;;;;;23.90;48.11;97363.59;7309517;19;130355;-34
2023/10/31 01:03:52;;;;;;;39.60;2.50;;;;;;;24.02;47.51;97375.09;7308020;19;129332;-30
2023/10/31 01:06:17;;;;;;;39.03;2.33;;;;;;;24.01;47.68;97376.09;7310071;19;129336;-34
2023/10/31 01:08:43;;;;;;;78.20;3.90;;;;;;;24.02;47.19;97375.09;7309641;19;128877;-32
2023/10/31 01:11:08;;;;;;;27.13;1.60;;;;;;;24.01;47.72;97362.97;7308386;19;131141;-34
2023/10/31 01:13:33;;;;;;;2.57;0.33;;;;;;;24.01;47.55;97362.16;7307764;19;129405;-32
2023/10/31 01:15:59;;;;;;;52.47;2.90;;;;;;;24.01;47.47;97362.97;7308146;19;129028;-31
2023/10/31 01:18:24;;;;;;;52.73;2.67;;;;;;;24.00;47.25;97353.47;7308522;19;129084;-37
2023/10/31 01:20:49;;;;;;;72.83;3.93;;;;;;;24.03;47.76;97360.16;7307609;19;129214;-36
2023/10/31 01:23:15;;;;;;;27.77;1.50;;;;;;;24.01;47.90;97349.88;7307601;19;129679;-32
2023/10/31 01:25:40;;;;;;;50.87;2.57;;;;;;;24.01;47.89;97341.97;7310254;19;129168;-29
2023/10/31 01:28:05;;;;;;;35.53;1.83;;;;;;;23.99;47.51;97338.75;7317466;19;129169;-34
2023/10/31 01:30:31;;;;;;;47.57;2.83;;;;;;;23.95;47.29;97337.53;7315622;19;129183;-35
2023/10/31 01:32:56;;;;;;;34.70;1.90;;;;;;;24.01;47.57;97352.50;7313330;19;129877;-35
2023/10/31 01:35:22;;;;;;;53.37;2.80;;;;;;;24.03;47.28;97355.69;7316876;19;128865;-32
2023/10/31 01:37:47;;;;;;;43.87;2.57;;;;;;;23.99;47.13;97344.00;7315827;19;129401;-37
2023/10/31 01:40:13;;;;;;;26.27;1.43;;;;;;;24.01;47.88;97339.34;7317253;19;129211;-35
2023/10/31 01:42:38;;;;;;;26.20;1.47;;;;;;;24.00;47.55;97340.34;7314511;19;129499;-29
2023/10/31 01:45:04;;;;;;;56.47;2.90;;;;;;;24.00;47.82;97335.09;7315025;19;128911;-40
2023/10/31 01:47:29;;;;;;;31.90;1.67;;;;;;;24.01;47.14;97336.72;7316952;19;128765;-30
2023/10/31 01:49:55;;;;;;;49.47;2.73;;;;;;;24.01;46.93;97336.72;7315470;19;129437;-30
2023/10/31 01:52:21;;;;;;;36.90;2.00;;;;;;;23.97;47.84;97330.25;7314908;19;128909;-31
2023/10/31 01:54:46;;;;;;;72.07;3.63;;;;;;;23.89;47.76;97316.56;7315226;19;128880;-29
2023/10/31 01:57:13;;;;;;;27.35;1.50;;;;;;;23.99;47.46;97333.50;7315901;19;129093;-34
2023/10/31 01:59:39;;;;;;;29.58;1.60;;;;;;;24.00;47.20;97327.22;7315936;19;129170;-34
2023/10/31 02:02:05;;;;;;;42.17;2.20;;;;;;;23.90;47.17;97321.59;7314650;19;129302;-33
2023/10/31 02:04:30;;;;;;;41.13;2.13;;;;;;;24.02;47.43;97353.28;7314343;19;129080;-35
2023/10/31 02:06:55;;;;;;;31.63;1.80;;;;;;;23.87;47.17;97327.28;7314029;19;128992;-37
2023/10/31 02:09:24;;;;;;;21.07;1.27;;;;;;;24.00;47.47;97355.28;7315871;19;129396;-32
2023/10/31 02:11:50;;;;;;;60.67;3.28;;;;;;;24.01;47.06;97344.63;7314964;19;131114;-38
2023/10/31 02:14:15;;;;;;;31.77;1.77;;;;;;;24.00;47.11;97353.47;7313824;19;129325;-36
2023/10/31 02:16:41;;;;;;;36.80;2.07;;;;;;;24.01;47.07;97344.63;7315623;19;129032;-47
2023/10/31 02:19:07;;;;;;;28.17;1.60;;;;;;;24.00;47.49;97352.66;7311639;19;129785;-33
2023/10/31 02:21:32;;;;;;;54.15;2.75;;;;;;;23.99;47.40;97356.31;7314889;19;129254;-33
2023/10/31 02:24:02;;;;;;;57.07;3.10;;;;;;;23.99;47.28;97359.75;7315131;19;129701;-36
2023/10/31 02:26:29;;;;;;;32.42;1.90;;;;;;;24.02;47.30;97359.34;7315449;19;129183;-39
2023/10/31 02:28:55;;;;;;;61.25;3.30;;;;;;;23.99;47.37;97362.38;7312758;19;129198;-37
2023/10/31 02:31:20;;;;;;;31.77;1.67;;;;;;;24.01;47.64;97368.22;7312879;19;129813;-33
2023/10/31 02:33:46;;;;;;;55.40;2.90;;;;;;;24.00;47.07;97371.84;7313538;19;129418;-34
2023/10/31 02:36:11;;;;;;;29.23;1.70;;;;;;;24.01;47.06;97372.66;7314351;19;128817;-32
2023/10/31 02:38:36;;;;;;;34.17;1.83;;;;;;;24.01;47.10;97376.09;7309706;19;130125;-39
2023/10/31 02:41:02;;;;;;;53.43;2.73;;;;;;;23.97;46.97;97367.00;7311783;19;129130;-29
2023/10/31 02:43:27;;;;;;;38.27;2.23;;;;;;;24.01;47.29;97378.72;7313797;19;129854;-35
2023/10/31 02:45:53;;;;;;;32.13;1.73;;;;;;;24.00;47.46;97377.09;7314317;19;128914;-37
2023/10/31 02:48:18;;;;;;;26.77;1.40;;;;;;;23.99;47.30;97378.13;7313819;19;129411;-31
2023/10/31 02:50:44;;;;;;;92.13;4.97;;;;;;;24.00;47.40;97371.84;7312560;19;129411;-39
2023/10/31 02:53:10;;;;;;;28.40;1.58;;;;;;;23.88;47.35;97362.97;7313367;19;129090;-36
2023/10/31 02:55:35;;;;;;;28.90;1.67;;;;;;;24.02;47.49;97384.78;7314319;19;129116;-32
2023/10/31 02:58:00;;;;;;;30.87;1.80;;;;;;;23.97;46.95;97395.88;7312838;19;129496;-34
2023/10/31 03:00:26;;;;;;;73.20;3.67;;;;;;;23.99;47.13;97399.13;7312915;19;129424;-32
2023/10/31 03:02:52;;;;;;;59.10;3.10;;;;;;;23.99;47.01;97401.75;7311893;19;129548;-35
2023/10/31 03:05:17;;;;;;;6.80;0.53;;;;;;;23.96;47.35;97394.28;7313627;19;129457;-34
2023/10/31 03:07:43;;;;;;;37.90;2.00;;;;;;;23.99;47.60;97390.44;7313220;19;131189;-30
2023/10/31 03:10:09;;;;;;;56.97;2.83;;;;;;;23.99;47.01;97399.13;7314541;19;130315;-39
2023/10/31 03:12:34;;;;;;;27.50;1.50;;;;;;;23.97;47.05;97395.88;7313456;19;129127;-33
2023/10/31 03:14:59;;;;;;;50.07;2.80;;;;;;;23.99;47.46;97396.50;7311900;19;129595;-35
2023/10/31 03:17:26;;;;;;;40.53;2.17;;;;;;;23.99;47.26;97401.75;7313875;19;129492;-33
2023/10/31 03:19:51;;;;;;;63.10;3.35;;;;;;;23.99;47.21;97396.50;7313766;19;129675;-39
2023/10/31 03:22:16;;;;;;;38.88;2.20;;;;;;;23.98;46.92;97394.88;7313170;19;129360;-32
2023/10/31 03:24:42;;;;;;;31.67;1.70;;;;;;;23.98;47.65;97389.63;7313235;19;128969;-32
2023/10/31 03:27:07;;;;;;;68.23;3.57;;;;;;;23.98;47.45;97389.63;7310858;19;129178;-32
2023/10/31 03:29:32;;;;;;;47.67;2.67;;;;;;;23.98;46.88;97383.59;7313655;19;129901;-30
2023/10/31 03:31:57;;;;;;;26.87;1.70;;;;;;;23.96;47.52;97375.91;7312539;19;129092;-36
2023/10/31 03:34:23;;;;;;;24.87;1.40;;;;;;;23.96;47.58;97375.91;7311235;19;129639;-32
2023/10/31 03:36:48;;;;;;;71.10;3.73;;;;;;;23.97;47.41;97374.88;7311617;19;129094;-34
2023/10/31 03:39:14;;;;;;;29.03;1.60;;;;;;;23.85;47.22;97352.91;7311361;19;129379;-35
2023/10/31 03:41:39;;;;;;;2.90;0.30;;;;;;;23.98;47.44;97371.25;7312882;19;128998;-34
2023/10/31 03:44:04;;;;;;;38.87;2.23;;;;;;;24.00;47.33;97371.84;7309808;19;129607;-34
2023/10/31 03:46:30;;;;;;;71.93;3.60;;;;;;;24.00;47.53;97371.03;7312793;19;130796;-42
2023/10/31 03:48:55;;;;;;;28.53;1.67;;;;;;;24.00;47.36;97376.28;7310552;19;129594;-36
2023/10/31 03:51:21;;;;;;;27.63;1.50;;;;;;;23.92;46.81;97364.19;7312357;19;128936;-31
2023/10/31 03:53:46;;;;;;;39.13;2.07;;;;;;;23.98;47.44;97371.25;7311439;19;129482;-38
2023/10/31 03:56:11;;;;;;;52.30;2.80;;;;;;;23.98;47.03;97373.88;7312611;19;128987;-34
2023/10/31 03:58:36;;;;;;;37.57;2.00;;;;;;;23.98;47.16;97384.38;7305285;19;129459;-35
2023/10/31 04:01:02;;;;;;;35.87;2.07;;;;;;;23.90;47.11;97363.59;7309814;19;129354;-35
2023/10/31 04:03:27;;;;;;;47.33;2.47;;;;;;;23.97;46.94;97379.31;7310804;19;128827;-35
2023/10/31 04:05:53;;;;;;;80.80;4.50;;;;;;;23.97;46.89;97372.25;7311741;19;129552;-38
2023/10/31 04:08:18;;;;;;;28.73;1.67;;;;;;;23.99;47.02;97372.06;7311913;19;130978;-38
2023/10/31 04:10:43;;;;;;;68.80;4.30;;;;;;;23.97;47.17;97368.81;7310319;19;129015;-30
2023/10/31 04:13:09;;;;;;;58.00;3.05;;;;;;;23.98;47.29;97360.75;7309457;19;128576;-34
2023/10/31 04:15:35;;;;;;;31.53;1.83;;;;;;;23.98;47.35;97358.13;7312126;19;131063;-36
2023/10/31 04:18:00;;;;;;;56.80;3.03;;;;;;;23.97;47.44;97360.94;7310216;19;129211;-33
2023/10/31 04:20:25;;;;;;;37.40;2.20;;;;;;;23.99;46.62;97364.19;7311829;19;129658;-36
2023/10/31 04:22:51;;;;;;;80.87;4.23;;;;;;;23.96;46.88;97372.47;7307859;19;129356;-41
2023/10/31 04:25:16;;;;;;;27.00;1.53;;;;;;;23.97;47.25;97379.31;7312754;19;129013;-35
2023/10/31 04:27:41;;;;;;;28.80;1.53;;;;;;;23.97;47.27;97388.00;7311852;19;129474;-35
2023/10/31 04:30:07;;;;;;;25.60;1.60;;;;;;;23.96;47.38;97389.03;7310698;19;128740;-38
2023/10/31 04:32:32;;;;;;;39.33;2.03;;;;;;;23.99;47.34;97385.19;7309902;19;129077;-32
2023/10/31 04:34:58;;;;;;;39.17;2.23;;;;;;;23.95;47.43;97400.50;7310183;19;129522;-36
2023/10/31 04:37:24;;;;;;;18.47;1.07;;;;;;;23.98;47.09;97405.38;7310637;19;129719;-34
2023/10/31 04:39:49;;;;;;;40.88;2.25;;;;;;;24.00;47.09;97403.34;7307987;19;129278;-40
2023/10/31 04:42:15;;;;;;;57.60;3.00;;;;;;;24.02;47.49;97405.78;7310925;19;129363;-38
2023/10/31 04:44:40;;;;;;;30.00;1.63;;;;;;;23.92;47.81;97393.06;7310484;19;129735;-37
2023/10/31 04:47:06;;;;;;;44.07;2.57;;;;;;;24.03;47.18;97402.94;7309412;19;129406;-34
2023/10/31 04:49:34;;;;;;;55.15;2.92;;;;;;;24.06;47.16;97418.28;7310431;19;128970;-34
2023/10/31 04:52:00;;;;;;;47.25;2.72;;;;;;;24.11;47.96;97418.44;7310906;19;128719;-36
2023/10/31 04:54:25;;;;;;;37.23;1.93;;;;;;;24.16;47.37;97415.22;7309309;19;129244;-29
2023/10/31 04:56:50;;;;;;;24.90;1.47;;;;;;;24.16;48.55;97413.38;7308837;19;129783;-35
2023/10/31 04:59:16;;;;;;;50.67;2.67;;;;;;;24.26;49.37;97424.25;7309143;19;129011;-35
2023/10/31 05:01:41;;;;;;;44.13;2.33;;;;;;;24.29;49.86;97429.09;7314379;19;129130;-32
2023/10/31 05:04:06;;;;;;;46.28;2.65;;;;;;;24.34;49.72;97437.16;7315719;19;129582;-31
2023/10/31 05:06:32;;;;;;;14.30;1.00;;;;;;;24.38;49.36;97422.56;7317773;19;129616;-36
2023/10/31 05:08:57;;;;;;;75.60;4.17;;;;;;;24.32;49.44;97412.91;7315844;19;128765;-37
2023/10/31 05:11:22;;;;;;;29.23;1.77;;;;;;;24.46;49.30;97424.16;7318689;19;129359;-32
2023/10/31 05:13:48;;;;;;;30.13;1.80;;;;;;;24.52;50.15;97422.50;7315182;19;129438;-37
2023/10/31 05:16:13;;;;;;;21.57;1.53;;;;;;;24.52;50.37;97422.50;7316869;19;129916;-31
2023/10/31 05:18:39;;;;;;;100.33;4.97;;;;;;;24.52;49.71;97423.31;7315297;19;128935;-37
2023/10/31 05:21:05;;;;;;;24.63;1.60;;;;;;;24.66;48.76;97418.78;7316855;19;129126;-31
2023/10/31 05:23:30;;;;;;;32.97;1.80;;;;;;;24.72;49.24;97420.59;7316263;19;129067;-36
2023/10/31 05:25:55;;;;;;;34.93;1.90;;;;;;;24.79;48.21;97421.38;7317106;19;129862;-31
2023/10/31 05:28:21;;;;;;;63.90;3.30;;;;;;;24.86;48.34;97425.53;7318481;19;129341;-35
2023/10/31 05:30:47;;;;;;;59.60;3.87;;;;;;;24.87;48.98;97435.06;7316167;19;129154;-36
2023/10/31 05:33:15;;;;;;;31.23;1.77;;;;;;;24.84;49.08;97424.94;7315951;19;129647;-39
2023/10/31 05:35:40;;;;;;;48.90;2.60;;;;;;;24.97;49.40;97437.22;7316648;19;130100;-40
2023/10/31 05:38:06;;;;;;;54.30;2.93;;;;;;;25.01;49.12;97448.88;7317836;19;129149;-39
2023/10/31 05:40:35;;;;;;;26.03;1.47;;;;;;;24.93;49.60;97457.03;7317976;19;128941;-37
2023/10/31 05:43:00;;;;;;;19.90;1.27;;;;;;;24.88;49.76;97459.50;7312921;19;129408;-28
2023/10/31 05:45:26;;;;;;;37.63;2.10;;;;;;;24.77;50.04;97465.44;7315797;19;130002;-32
2023/10/31 05:47:51;;;;;;;65.17;3.60;;;;;;;24.68;50.18;97469.31;7315149;19;128929;-38
2023/10/31 05:50:16;;;;;;;23.73;1.40;;;;;;;24.69;48.80;97471.75;7316336;19;128951;-31
2023/10/31 05:52:42;;;;;;;34.93;2.07;;;;;;;24.64;48.45;97473.38;7314048;19;129519;-38
2023/10/31 05:55:08;;;;;;;38.10;2.07;;;;;;;24.65;48.58;97480.22;7315126;19;129215;-32
2023/10/31 05:57:33;;;;;;;47.60;2.53;;;;;;;24.61;48.22;97481.69;7315800;19;129200;-36
2023/10/31 05:59:58;;;;;;;30.27;1.60;;;;;;;24.48;48.72;97471.25;7311800;19;129370;-30
2023/10/31 06:02:24;;;;;;;29.80;1.67;;;;;;;24.59;48.29;97491.59;7314449;19;129527;-31
2023/10/31 06:04:49;;;;;;;50.07;2.70;;;;;;;24.51;48.24;97474.22;7312982;19;129215;-35
2023/10/31 06:07:14;;;;;;;29.30;1.63;;;;;;;24.60;49.65;97498.44;7316076;19;128797;-37
2023/10/31 06:09:40;;;;;;;27.00;1.53;;;;;;;24.52;50.49;97506.56;7315551;19;129256;-41
2023/10/31 06:12:05;;;;;;;37.53;2.10;;;;;;;24.46;50.74;97521.34;7313639;19;129187;-34
2023/10/31 06:14:30;;;;;;;31.77;1.77;;;;;;;24.43;50.26;97527.00;7312847;19;129130;-38
2023/10/31 06:16:59;;;;;;;37.97;2.03;;;;;;;24.36;51.35;97524.41;7313827;19;129279;-37
2023/10/31 06:19:24;;;;;;;49.15;2.83;;;;;;;24.34;51.16;97539.59;7313264;19;129525;-34
2023/10/31 06:21:49;;;;;;;25.77;1.40;;;;;;;24.32;51.59;97554.75;7314053;19;129738;-34
2023/10/31 06:24:15;;;;;;;65.43;3.27;;;;;;;24.26;51.87;97563.41;7312990;19;129132;-37
2023/10/31 06:26:40;;;;;;;38.87;2.07;;;;;;;24.22;52.71;97569.28;7314460;19;129201;-36
2023/10/31 06:29:06;;;;;;;39.57;2.30;;;;;;;24.18;50.07;97568.91;7313999;19;128830;-40
2023/10/31 06:31:31;;;;;;;13.87;0.90;;;;;;;24.29;48.89;97576.16;7313199;19;129982;-29
2023/10/31 06:33:56;;;;;;;85.70;4.57;;;;;;;24.31;48.49;97578.59;7312158;19;129122;-39
2023/10/31 06:36:22;;;;;;;28.93;1.57;;;;;;;24.21;48.95;97557.97;7313351;19;129235;-40
2023/10/31 06:38:47;;;;;;;19.07;1.13;;;;;;;24.33;48.53;97584.41;7311323;19;129160;-34
2023/10/31 06:41:13;;;;;;;59.07;3.03;;;;;;;24.32;48.69;97586.25;7312613;19;129049;-35
2023/10/31 06:43:38;;;;;;;49.60;2.57;;;;;;;24.23;48.39;97571.72;7312143;19;129242;-36
2023/10/31 06:46:05;;;;;;;51.27;2.97;;;;;;;24.37;48.62;97596.94;7311530;19;128926;-35
2023/10/31 06:48:30;;;;;;;24.57;1.47;;;;;;;24.41;48.32;97595.50;7313737;19;128849;-36
2023/10/31 06:50:55;;;;;;;59.90;3.20;;;;;;;24.41;47.98;97606.00;7309538;19;130071;-30
2023/10/31 06:53:21;;;;;;;38.43;1.93;;;;;;;24.38;48.20;97606.44;7313063;19;129381;-36
2023/10/31 06:55:47;;;;;;;24.43;1.43;;;;;;;24.38;47.93;97614.31;7314372;19;129124;-33
2023/10/31 06:58:12;;;;;;;37.63;2.13;;;;;;;24.25;48.06;97595.97;7312311;19;128841;-30
2023/10/31 07:00:37;;;;;;;97.77;5.70;;;;;;;24.36;48.08;97618.16;7311177;19;129261;-38
2023/10/31 07:03:09;;;;;;;60.40;3.33;;;;;;;24.35;47.93;97622.59;7311794;19;129010;-32
2023/10/31 07:05:35;;;;;;;9.18;0.65;;;;;;;24.40;47.89;97621.97;7311109;19;130907;-32
2023/10/31 07:08:03;;;;;;;34.50;1.85;;;;;;;24.38;47.61;97631.88;7313490;19;129035;-32
2023/10/31 07:10:28;;;;;;;71.13;3.75;;;;;;;24.36;47.90;97620.78;7310541;19;129191;-27
2023/10/31 07:12:53;;;;;;;55.50;2.87;;;;;;;24.38;47.91;97624.81;7308173;19;130048;-34
2023/10/31 07:15:19;;;;;;;28.83;1.63;;;;;;;24.33;47.50;97627.25;7310298;19;129038;-41
2023/10/31 07:17:44;;;;;;;31.33;1.90;;;;;;;24.35;47.67;97642.81;7307456;19;129914;-34
2023/10/31 07:20:10;;;;;;;123.13;6.53;;;;;;;24.36;47.99;97642.59;7306410;19;129594;-31
2023/10/31 07:22:35;;;;;;;30.13;1.60;;;;;;;24.41;48.23;97648.03;7311635;19;129204;-39
2023/10/31 07:25:03;;;;;;;33.27;1.83;;;;;;;24.38;49.38;97637.94;7308482;19;129035;-38
2023/10/31 07:27:29;;;;;;;24.75;1.45;;;;;;;24.49;49.74;97645.19;7306834;19;130189;-33
2023/10/31 07:29:54;;;;;;;101.83;5.53;;;;;;;24.45;50.44;97662.41;7307895;19;129492;-33
2023/10/31 07:32:20;;;;;;;55.17;3.33;;;;;;;24.42;50.88;97670.69;7307286;19;130140;-35
2023/10/31 07:34:45;;;;;;;42.93;2.20;;;;;;;24.40;51.08;97672.72;7311354;19;129488;-29
2023/10/31 07:37:10;;;;;;;40.27;2.37;;;;;;;24.35;51.01;97680.38;7310169;19;129126;-35
2023/10/31 07:39:36;;;;;;;88.63;5.13;;;;;;;24.31;51.75;97676.53;7309874;19;129546;-43
2023/10/31 07:42:01;;;;;;;71.93;4.20;;;;;;;24.15;51.25;97666.47;7305610;19;129310;-36
2023/10/31 07:44:26;;;;;;;41.60;2.23;;;;;;;24.23;51.96;97692.50;7307642;19;129333;-30
2023/10/31 07:46:52;;;;;;;90.63;5.30;;;;;;;24.21;49.57;97705.03;7306108;19;130364;-39
2023/10/31 07:49:17;;;;;;;71.80;3.93;;;;;;;24.26;49.12;97699.97;7308187;19;129554;-37
2023/10/31 07:51:43;;;;;;;30.77;1.70;;;;;;;24.28;49.54;97703.22;7309799;19;129773;-34
2023/10/31 07:54:09;;;;;;;34.07;2.10;;;;;;;24.33;49.07;97700.78;7305817;19;129967;-36
2023/10/31 07:56:36;;;;;;;60.17;3.22;;;;;;;24.34;49.23;97705.06;7308875;19;129329;-35
2023/10/31 07:59:01;;;;;;;143.50;7.97;;;;;;;24.35;48.74;97701.41;7304873;19;129190;-47
2023/10/31 08:01:27;;;;;;;66.47;4.13;;;;;;;24.39;48.06;97702.59;7308004;19;131994;-33
2023/10/31 08:03:53;;;;;;;82.28;4.57;;;;;;;24.42;47.80;97714.53;7307902;19;129964;-34
2023/10/31 08:06:19;;;;;;;56.77;3.20;;;;;;;24.44;48.05;97715.16;7311871;19;129020;-32
2023/10/31 08:08:45;;;;;;;60.40;3.15;;;;;;;24.45;48.05;97727.25;7306765;19;129336;-35
2023/10/31 08:11:11;;;;;;;47.50;3.13;;;;;;;24.45;47.77;97727.25;7310452;19;130491;-39
2023/10/31 08:13:39;;;;;;;14.03;1.43;;;;;;;24.44;47.60;97731.69;7306454;19;131650;-41
2023/10/31 08:16:06;;;;;;;82.82;4.43;;;;;;;24.45;47.30;97740.38;7309665;19;129230;-31
2023/10/31 08:18:31;;;;;;;41.05;2.30;;;;;;;24.45;48.10;97728.06;7308671;19;131451;-35
2023/10/31 08:20:57;;;;;;;21.10;1.53;;;;;;;24.45;47.33;97722.81;7306707;19;129578;-41
2023/10/31 08:23:22;;;;;;;28.03;1.70;;;;;;;24.41;47.54;97721.59;7308338;19;129389;-32
2023/10/31 08:25:48;;;;;;;76.43;4.13;;;;;;;24.34;47.87;97718.19;7309104;19;129311;-35
2023/10/31 08:28:13;;;;;;;42.70;2.63;;;;;;;24.39;47.71;97725.44;7311162;19;129794;-36
2023/10/31 08:30:39;;;;;;;86.73;5.53;;;;;;;24.34;47.16;97718.19;7309655;19;129441;-32
2023/10/31 08:33:04;;;;;;;33.00;2.20;;;;;;;24.39;47.98;97739.38;7307492;19;128952;-30
2023/10/31 08:35:30;;;;;;;75.57;4.37;;;;;;;24.30;47.13;97705.63;7305239;19;129933;-35
2023/10/31 08:37:55;;;;;;;47.20;2.70;;;;;;;24.40;47.84;97730.50;7302629;19;130348;-34
2023/10/31 08:40:20;;;;;;;59.87;3.70;;;;;;;24.40;47.94;97741.00;7303192;19;129560;-32
2023/10/31 08:42:46;;;;;;;44.80;2.67;;;;;;;24.36;48.05;97739.00;7307057;19;129447;-39
2023/10/31 08:45:11;;;;;;;76.67;4.43;;;;;;;24.35;47.94;97753.94;7309669;19;129506;-43
2023/10/31 08:47:36;;;;;;;30.57;1.80;;;;;;;24.36;47.67;97760.78;7306718;19;129537;-31
2023/10/31 08:50:02;;;;;;;27.37;2.07;;;;;;;24.41;48.14;97760.22;7309423;19;129251;-32
2023/10/31 08:52:27;;;;;;;55.90;3.23;;;;;;;24.43;49.83;97764.25;7307544;19;130494;-38
2023/10/31 08:54:53;;;;;;;215.30;12.27;;;;;;;24.35;50.00;97732.94;7305746;19;129498;-36
2023/10/31 08:57:18;;;;;;;44.53;2.80;;;;;;;24.54;49.73;97754.13;7304729;19;130523;-33
2023/10/31 08:59:43;;;;;;;59.80;3.70;;;;;;;24.40;50.57;97748.88;7306110;19;129138;-39
2023/10/31 09:02:09;;;;;;;114.57;7.07;;;;;;;24.48;50.84;97762.84;7300991;19;129627;-36
2023/10/31 09:04:35;;;;;;;84.37;7.43;;;;;;;24.40;51.13;97766.44;7300259;19;129896;-39
2023/10/31 09:07:00;;;;;;;83.80;8.50;;;;;;;24.32;51.89;97771.91;7301080;19;129490;-45
2023/10/31 09:09:25;;;;;;;43.40;6.73;;;;;;;24.31;52.36;97775.56;7302538;19;130345;-36
2023/10/31 09:11:51;;;;;;;250.00;18.50;;;;;;;24.26;52.06;97770.88;7296528;19;129313;-34
2023/10/31 09:14:16;;;;;;;116.10;10.90;;;;;;;24.25;49.48;97771.09;7301076;19;129640;-33
2023/10/31 09:16:41;;;;;;;39.90;6.77;;;;;;;24.32;49.43;97775.34;7303220;19;129561;-37
2023/10/31 09:19:07;;;;;;;58.63;8.03;;;;;;;24.31;49.43;97772.94;7301042;19;129763;-42
2023/10/31 09:21:33;;;;;;;93.33;9.60;;;;;;;24.42;48.63;97778.41;7302417;19;130137;-39
2023/10/31 09:23:58;;;;;;;80.87;8.47;;;;;;;24.49;49.37;97781.03;7304822;19;130199;-37
2023/10/31 09:26:23;;;;;;;59.90;7.70;;;;;;;24.49;48.15;97776.56;7305164;19;129561;-32
2023/10/31 09:28:51;;;;;;;54.07;6.87;;;;;;;24.51;48.24;97783.44;7305289;19;129265;-32
2023/10/31 09:31:18;;;;;;;185.55;14.10;;;;;;;24.53;48.03;97791.94;7299769;19;129651;-47
2023/10/31 09:33:44;;;;;;;51.80;6.70;;;;;;;24.52;48.26;97798.19;7301936;19;129517;-36
2023/10/31 09:36:10;;;;;;;46.00;6.20;;;;;;;24.53;48.13;97797.97;7308056;19;130237;-37
2023/10/31 09:38:35;;;;;;;45.03;6.18;;;;;;;24.53;47.88;97799.81;7303910;19;129518;-34
2023/10/31 09:41:01;;;;;;;66.00;7.30;;;;;;;24.53;47.38;97812.97;7306362;19;129389;-39
2023/10/31 09:43:26;;;;;;;72.40;7.67;;;;;;;24.53;47.53;97810.34;7304100;19;129577;-32
2023/10/31 09:45:52;;;;;;;26.73;4.67;;;;;;;24.52;47.30;97803.44;7308391;19;129294;-30
2023/10/31 09:48:19;;;;;;;75.37;7.57;;;;;;;24.39;47.98;97776.16;7312991;19;129478;-33
2023/10/31 09:50:47;;;;;;;96.80;9.15;;;;;;;24.45;47.21;97796.38;7310462;19;129620;-38
2023/10/31 09:53:14;;;;;;;41.78;5.47;;;;;;;24.49;47.37;97810.72;7309198;19;129250;-32
2023/10/31 09:55:40;;;;;;;44.00;6.18;;;;;;;24.39;47.64;97801.63;7310009;19;129570;-37
2023/10/31 09:58:05;;;;;;;99.03;9.00;;;;;;;24.49;47.77;97831.72;7305042;19;129529;-44
2023/10/31 10:00:32;;;;;;;83.40;7.47;;;;;;;24.48;47.79;97838.00;7308813;19;128892;-37
2023/10/31 10:02:58;;;;;;;230.80;15.47;;;;;;;24.50;48.18;97835.16;7304094;19;129451;-44
2023/10/31 10:05:24;;;;;;;45.67;6.03;;;;;;;24.48;47.79;97843.25;7311550;19;129738;-31
2023/10/31 10:07:50;;;;;;;138.18;10.25;;;;;;;24.48;47.32;97852.16;7304008;19;130025;-39
2023/10/31 10:10:16;;;;;;;123.33;9.60;;;;;;;24.46;47.30;97850.53;7304983;19;128997;-40
2023/10/31 10:12:43;;;;;;;53.97;5.83;;;;;;;24.49;46.97;97842.22;7313736;19;128964;-34
2023/10/31 10:15:10;;;;;;;34.55;4.72;;;;;;;24.50;47.12;97835.16;7305458;19;130310;-37
2023/10/31 10:17:35;;;;;;;69.07;5.93;;;;;;;24.49;47.06;97857.22;7311790;19;130320;-36
2023/10/31 10:20:09;;;;;;;66.30;6.27;;;;;;;24.46;47.47;97850.53;7309393;19;130432;-29
2023/10/31 10:22:44;;;;;;;77.95;6.90;;;;;;;24.49;47.92;97855.38;7313160;19;129204;-35
2023/10/31 10:25:18;;;;;;;65.53;6.45;;;;;;;24.40;49.56;97835.56;7311688;19;129758;-33
2023/10/31 10:27:47;;;;;;;196.60;14.32;;;;;;;24.47;49.76;97835.56;7302606;19;130777;-38
2023/10/31 10:30:14;;;;;;;53.78;5.55;;;;;;;24.58;50.17;97857.84;7312791;19;128800;-42
2023/10/31 10:32:39;;;;;;;74.10;6.45;;;;;;;24.55;50.27;97853.78;7309552;19;129241;-39
2023/10/31 10:35:06;;;;;;;38.07;4.63;;;;;;;24.53;50.80;97849.75;7312011;19;131578;-34
2023/10/31 10:37:32;;;;;;;;;;;;;;;24.48;50.79;97858.19;7309716;19;130983;-41
2023/10/31 10:39:59;;;;;;;96.10;7.65;;;;;;;24.46;51.06;97847.09;7310152;19;129795;-33
2023/10/31 10:42:35;;;;;;;111.05;8.13;;;;;;;24.41;51.58;97842.44;7306133;19;129273;-35
2023/10/31 10:45:05;;;;;;;42.67;4.82;;;;;;;24.36;48.82;97850.09;7313350;19;130358;-41
2023/10/31 10:47:35;;;;;;;83.43;6.95;;;;;;;24.35;49.53;97859.00;7307863;19;130280;-37
2023/10/31 10:50:02;;;;;;;60.75;5.57;;;;;;;24.40;48.96;97859.22;7309556;19;129026;-38
2023/10/31 10:52:35;;;;;;;105.70;7.93;;;;;;;24.44;49.41;97857.78;7309612;19;129220;-32
2023/10/31 10:55:07;;;;;;;54.92;5.30;;;;;;;24.44;48.06;97847.28;7310599;19;130758;-35
2023/10/31 10:57:44;;;;;;;86.47;6.65;;;;;;;24.54;49.01;97851.34;7311656;19;129787;-35
2023/10/31 11:00:12;;;;;;;31.83;4.05;;;;;;;24.55;48.10;97842.44;7304133;19;130158;-35
2023/10/31 11:02:43;;;;;;;63.50;5.47;;;;;;;24.56;47.96;97844.06;7311127;19;128888;-32
2023/10/31 11:05:09;;;;;;;47.53;4.22;;;;;;;24.56;47.56;97833.56;7308605;19;129559;-28
2023/10/31 11:07:37;;;;;;;73.57;5.78;;;;;;;24.55;47.50;97831.94;7314123;19;129890;-35
2023/10/31 11:10:04;;;;;;;43.25;3.90;;;;;;;24.59;47.41;97833.97;7310115;19;129410;-31